createdAt,value
2019-05-01T00:01:04.654Z,78.90
2019-05-01T00:03:54.242Z,78.80
2019-05-01T00:06:25.365Z,78.40
2019-05-01T00:08:52.678Z,79.30
2019-05-01T00:11:20.222Z,80.00
2019-05-01T00:13:47.551Z,80.10
2019-05-01T00:16:15.326Z,79.90
2019-05-01T00:18:42.630Z,79.90
2019-05-01T00:21:10.089Z,79.50
2019-05-01T00:23:37.430Z,79.60
2019-05-01T00:26:04.840Z,79.50
2019-05-01T00:28:32.294Z,79.80
2019-05-01T00:31:02.464Z,79.00
2019-05-01T00:33:30.113Z,78.40
2019-05-01T00:35:57.833Z,77.90
2019-05-01T00:38:25.150Z,78.20
2019-05-01T00:40:52.454Z,78.00
2019-05-01T00:43:19.816Z,77.90
2019-05-01T00:45:47.116Z,78.10
2019-05-01T00:48:14.472Z,77.70
2019-05-01T00:50:41.777Z,77.50
2019-05-01T00:53:09.136Z,77.20
2019-05-01T00:55:52.415Z,77.60
2019-05-01T00:58:33.670Z,77.90
2019-05-01T01:01:19.250Z,77.30
2019-05-01T01:03:46.786Z,76.90
2019-05-01T01:06:14.247Z,76.90
2019-05-01T01:08:41.657Z,77.00
2019-05-01T01:11:08.990Z,76.90
2019-05-01T01:13:36.706Z,77.30
2019-05-01T01:16:04.043Z,77.50
2019-05-01T01:18:31.484Z,77.50
2019-05-01T01:20:58.826Z,77.10
2019-05-01T01:23:26.220Z,76.80
2019-05-01T01:25:53.630Z,76.60
2019-05-01T01:28:21.727Z,76.80
2019-05-01T01:30:56.061Z,76.40
2019-05-01T01:33:18.593Z,75.50
2019-05-01T01:35:45.982Z,75.90
2019-05-01T01:38:13.334Z,76.20
2019-05-01T01:40:41.279Z,76.00
2019-05-01T01:43:27.098Z,75.60
2019-05-01T01:45:55.918Z,75.50
2019-05-01T01:48:23.202Z,76.00
2019-05-01T01:50:51.019Z,76.60
2019-05-01T01:53:20.369Z,76.60
2019-05-01T01:55:48.254Z,76.90
2019-05-01T01:58:16.558Z,76.70
2019-05-01T02:01:09.945Z,77.00
2019-05-01T02:03:39.761Z,76.70
2019-05-01T02:06:07.088Z,76.80
2019-05-01T02:08:34.433Z,77.70
2019-05-01T02:11:01.729Z,77.80
2019-05-01T02:13:29.540Z,77.60
2019-05-01T02:15:56.870Z,77.10
2019-05-01T02:18:24.333Z,76.30
2019-05-01T02:20:51.641Z,76.10
2019-05-01T02:23:18.908Z,76.50
2019-05-01T02:25:46.220Z,76.80
2019-05-01T02:28:33.283Z,76.30
2019-05-01T02:31:27.479Z,75.70
2019-05-01T02:33:47.724Z,76.90
2019-05-01T02:36:17.529Z,76.80
2019-05-01T02:38:46.614Z,74.50
2019-05-01T02:41:16.131Z,74.30
2019-05-01T02:43:46.066Z,75.10
2019-05-01T02:46:16.140Z,75.60
2019-05-01T02:48:47.864Z,76.10
2019-05-01T02:51:15.680Z,75.80
2019-05-01T02:53:45.831Z,74.00
2019-05-01T02:56:26.882Z,74.50
2019-05-01T02:58:55.962Z,75.00
2019-05-01T03:01:24.324Z,75.40
2019-05-01T03:03:52.745Z,76.40
2019-05-01T03:06:20.810Z,77.20
2019-05-01T03:08:49.722Z,77.20
2019-05-01T03:11:17.082Z,77.10
2019-05-01T03:13:46.639Z,76.60
2019-05-01T03:16:14.969Z,77.60
2019-05-01T03:18:47.223Z,76.60
2019-05-01T03:21:28.947Z,75.90
2019-05-01T03:24:03.682Z,75.80
2019-05-01T03:26:31.071Z,77.10
2019-05-01T03:28:58.514Z,76.20
2019-05-01T03:31:26.457Z,76.20
2019-05-01T03:33:53.776Z,76.60
2019-05-01T03:36:21.226Z,76.60
2019-05-01T03:38:48.895Z,77.00
2019-05-01T03:41:16.847Z,76.60
2019-05-01T03:43:44.373Z,76.60
2019-05-01T03:46:12.014Z,76.60
2019-05-01T03:48:39.301Z,76.40
2019-05-01T03:51:06.930Z,76.50
2019-05-01T03:53:34.279Z,77.00
2019-05-01T03:56:01.861Z,76.70
2019-05-01T03:58:32.969Z,76.90
2019-05-01T04:01:19.174Z,76.80
2019-05-01T04:03:50.076Z,77.50
2019-05-01T04:06:17.898Z,77.30
2019-05-01T04:08:45.184Z,78.60
2019-05-01T04:11:12.512Z,78.40
2019-05-01T04:13:39.985Z,78.30
2019-05-01T04:16:07.952Z,78.60
2019-05-01T04:18:35.812Z,78.60
2019-05-01T04:21:03.255Z,79.40
2019-05-01T04:23:30.990Z,80.70
2019-05-01T04:25:58.905Z,79.90
2019-05-01T04:28:48.522Z,79.20
2019-05-01T04:31:36.068Z,78.60
2019-05-01T04:34:08.962Z,78.50
2019-05-01T04:36:40.077Z,78.60
2019-05-01T04:39:07.811Z,78.80
2019-05-01T04:41:35.825Z,79.90
2019-05-01T04:44:03.626Z,80.00
2019-05-01T04:46:31.704Z,79.70
2019-05-01T04:49:00.589Z,79.20
2019-05-01T04:51:27.948Z,79.50
2019-05-01T04:53:55.386Z,79.60
2019-05-01T04:56:22.992Z,80.60
2019-05-01T04:58:50.403Z,80.20
2019-05-01T05:01:17.853Z,81.90
2019-05-01T05:03:45.301Z,82.90
2019-05-01T05:06:12.591Z,82.60
2019-05-01T05:08:40.016Z,82.60
2019-05-01T05:11:12.615Z,82.70
2019-05-01T05:13:47.151Z,81.90
2019-05-01T05:16:23.173Z,82.10
2019-05-01T05:18:50.601Z,82.10
2019-05-01T05:21:17.893Z,82.00
2019-05-01T05:23:45.445Z,81.90
2019-05-01T05:26:12.892Z,80.90
2019-05-01T05:28:42.097Z,80.90
2019-05-01T05:31:11.316Z,80.80
2019-05-01T05:33:39.619Z,82.40
2019-05-01T05:36:08.781Z,82.10
2019-05-01T05:38:44.417Z,82.60
2019-05-01T05:41:12.821Z,82.40
2019-05-01T05:43:40.437Z,82.80
2019-05-01T05:46:07.943Z,83.30
2019-05-01T05:48:38.254Z,82.60
2019-05-01T05:51:22.046Z,81.90
2019-05-01T05:53:53.930Z,81.30
2019-05-01T05:56:27.926Z,82.50
2019-05-01T05:59:03.047Z,82.80
2019-05-01T06:01:41.985Z,82.00
2019-05-01T06:04:45.930Z,81.90
2019-05-01T06:07:23.807Z,82.80
2019-05-01T06:10:13.117Z,80.60
2019-05-01T06:12:51.174Z,80.50
2019-05-01T06:15:42.690Z,81.00
2019-05-01T06:18:29.690Z,80.60
2019-05-01T06:21:03.997Z,81.00
2019-05-01T06:23:57.779Z,81.30
2019-05-01T06:26:37.430Z,80.60
2019-05-01T06:29:03.409Z,80.10
2019-05-01T06:31:31.857Z,80.10
2019-05-01T06:33:59.655Z,80.00
2019-05-01T06:36:27.010Z,80.50
2019-05-01T06:38:55.403Z,80.80
2019-05-01T06:41:28.742Z,81.60
2019-05-01T06:44:02.182Z,80.30
2019-05-01T06:46:48.862Z,79.70
2019-05-01T06:49:30.953Z,80.30
2019-05-01T06:51:59.722Z,80.40
2019-05-01T06:54:29.536Z,79.10
2019-05-01T06:56:58.659Z,80.10
2019-05-01T06:59:31.395Z,80.20
2019-05-01T07:02:00.214Z,80.80
2019-05-01T07:04:32.409Z,79.50
2019-05-01T07:07:01.916Z,80.50
2019-05-01T07:09:29.802Z,80.40
2019-05-01T07:11:58.277Z,81.10
2019-05-01T07:14:25.733Z,81.30
2019-05-01T07:16:53.543Z,80.80
2019-05-01T07:19:42.007Z,81.90
2019-05-01T07:22:09.571Z,81.60
2019-05-01T07:24:37.035Z,81.50
2019-05-01T07:27:04.352Z,80.70
2019-05-01T07:29:33.551Z,80.60
2019-05-01T07:32:01.662Z,80.80
2019-05-01T07:34:30.310Z,81.00
2019-05-01T07:36:57.733Z,81.60
2019-05-01T07:39:25.319Z,82.00
2019-05-01T07:41:54.743Z,81.60
2019-05-01T07:44:38.487Z,81.30
2019-05-01T07:47:25.921Z,81.80
2019-05-01T07:49:55.011Z,81.20
2019-05-01T07:52:23.777Z,80.50
2019-05-01T07:54:51.616Z,80.40
2019-05-01T07:57:19.490Z,79.50
2019-05-01T07:59:47.119Z,79.20
2019-05-01T08:02:14.487Z,78.60
2019-05-01T08:04:42.506Z,77.70
2019-05-01T08:07:10.325Z,76.80
2019-05-01T08:09:38.176Z,76.80
2019-05-01T08:12:05.595Z,77.70
2019-05-01T08:14:33.050Z,76.40
2019-05-01T08:17:00.512Z,76.50
2019-05-01T08:19:46.028Z,75.10
2019-05-01T08:22:19.835Z,74.50
2019-05-01T08:24:47.168Z,74.10
2019-05-01T08:27:43.051Z,75.30
2019-05-01T08:30:28.822Z,74.80
2019-05-01T08:33:18.775Z,74.20
2019-05-01T08:35:47.095Z,73.40
2019-05-01T08:38:14.441Z,72.30
2019-05-01T08:40:41.759Z,73.10
2019-05-01T08:43:09.101Z,73.10
2019-05-01T08:45:58.602Z,72.00
2019-05-01T08:48:52.176Z,70.80
2019-05-01T08:51:19.546Z,70.40
2019-05-01T08:53:47.287Z,69.40
2019-05-01T08:56:17.123Z,69.00
2019-05-01T08:58:44.907Z,69.50
2019-05-01T09:01:15.015Z,66.10
2019-05-01T09:03:42.493Z,66.10
2019-05-01T09:06:09.891Z,64.80
2019-05-01T09:08:37.331Z,65.30
2019-05-01T09:11:04.870Z,65.50
2019-05-01T09:13:32.310Z,62.90
2019-05-01T09:15:59.705Z,58.80
2019-05-01T09:18:27.064Z,58.50
2019-05-01T09:20:56.732Z,55.70
2019-05-01T09:23:24.571Z,55.30
2019-05-01T09:26:01.372Z,56.00
2019-05-01T09:28:35.922Z,56.40
2019-05-01T09:31:03.590Z,54.70
2019-05-01T09:33:32.071Z,53.40
2019-05-01T09:35:59.745Z,52.50
2019-05-01T09:38:27.292Z,55.30
2019-05-01T09:40:54.687Z,50.50
2019-05-01T09:43:22.445Z,50.30
2019-05-01T09:45:49.799Z,51.20
2019-05-01T09:48:17.318Z,50.00
2019-05-01T09:50:49.346Z,50.90
2019-05-01T09:53:41.126Z,51.30
2019-05-01T09:56:15.111Z,48.20
2019-05-01T09:58:42.878Z,48.80
2019-05-01T10:01:10.302Z,48.70
2019-05-01T10:03:37.904Z,47.20
2019-05-01T10:06:05.326Z,49.00
2019-05-01T10:08:34.786Z,48.90
2019-05-01T10:11:05.151Z,48.80
2019-05-01T10:13:31.204Z,48.70
2019-05-01T10:15:58.626Z,50.90
2019-05-01T10:18:26.056Z,49.30
2019-05-01T10:20:53.715Z,47.60
2019-05-01T10:23:21.043Z,49.30
2019-05-01T10:25:52.151Z,48.90
2019-05-01T10:28:54.162Z,49.50
2019-05-01T10:31:46.594Z,47.50
2019-05-01T10:34:42.851Z,46.90
2019-05-01T10:37:08.335Z,46.60
2019-05-01T10:39:35.816Z,46.90
2019-05-01T10:42:03.228Z,46.10
2019-05-01T10:44:30.683Z,46.70
2019-05-01T10:46:58.159Z,44.80
2019-05-01T10:49:25.630Z,45.90
2019-05-01T10:51:53.074Z,42.80
2019-05-01T10:54:20.445Z,43.40
2019-05-01T10:56:47.810Z,42.80
2019-05-01T10:59:15.318Z,42.40
2019-05-01T11:01:55.102Z,45.00
2019-05-01T11:04:22.498Z,40.70
2019-05-01T11:06:49.955Z,36.00
2019-05-01T11:09:17.337Z,34.70
2019-05-01T11:11:44.940Z,31.30
2019-05-01T11:14:12.733Z,29.10
2019-05-01T11:16:40.273Z,27.70
2019-05-01T11:19:07.725Z,23.90
2019-05-01T11:21:35.242Z,23.50
2019-05-01T11:24:02.851Z,22.50
2019-05-01T11:26:30.449Z,19.80
2019-05-01T11:28:57.978Z,20.30
2019-05-01T11:31:32.027Z,18.10
2019-05-01T11:34:18.460Z,19.10
2019-05-01T11:37:04.392Z,18.50
2019-05-01T11:39:40.960Z,17.90
2019-05-01T11:42:11.984Z,18.00
2019-05-01T11:44:39.460Z,18.80
2019-05-01T11:47:07.396Z,18.20
2019-05-01T11:49:35.015Z,17.50
2019-05-01T11:52:02.622Z,16.80
2019-05-01T11:54:30.194Z,17.10
2019-05-01T11:56:57.776Z,17.30
2019-05-01T11:59:25.283Z,16.80
2019-05-01T12:01:52.788Z,16.30
2019-05-01T12:04:20.580Z,15.90
2019-05-01T12:06:48.119Z,16.30
2019-05-01T12:09:15.645Z,16.80
2019-05-01T12:11:45.057Z,15.10
2019-05-01T12:14:12.938Z,16.50
2019-05-01T12:16:58.722Z,16.80
2019-05-01T12:19:26.450Z,16.80
2019-05-01T12:21:54.065Z,16.20
2019-05-01T12:24:21.539Z,15.90
2019-05-01T12:26:49.051Z,15.50
2019-05-01T12:29:16.614Z,14.90
2019-05-01T12:31:44.136Z,15.60
2019-05-01T12:34:11.571Z,14.40
2019-05-01T12:36:40.297Z,14.70
2019-05-01T12:39:10.991Z,15.20
2019-05-01T12:41:44.550Z,14.90
2019-05-01T12:44:12.008Z,14.80
2019-05-01T12:47:08.417Z,16.00
2019-05-01T12:49:35.900Z,15.70
2019-05-01T12:52:10.543Z,16.00
2019-05-01T12:54:54.670Z,16.00
2019-05-01T12:57:22.209Z,14.90
2019-05-01T12:59:49.633Z,14.70
2019-05-01T13:02:16.990Z,14.30
2019-05-01T13:04:44.580Z,12.90
2019-05-01T13:07:12.482Z,14.10
2019-05-01T13:09:39.967Z,13.70
2019-05-01T13:12:07.530Z,14.10
2019-05-01T13:14:35.018Z,14.50
2019-05-01T13:17:03.114Z,14.10
2019-05-01T13:19:30.545Z,13.30
2019-05-01T13:21:58.143Z,13.10
2019-05-01T13:24:25.744Z,13.60
2019-05-01T13:27:02.646Z,13.10
2019-05-01T13:29:49.617Z,13.20
2019-05-01T13:32:34.057Z,13.70
2019-05-01T13:35:01.617Z,12.90
2019-05-01T13:37:29.075Z,13.20
2019-05-01T13:39:56.666Z,14.10
2019-05-01T13:42:24.260Z,15.00
2019-05-01T13:44:51.775Z,14.30
2019-05-01T13:47:19.270Z,14.20
2019-05-01T13:49:46.658Z,15.00
2019-05-01T13:52:14.108Z,14.30
2019-05-01T13:54:41.658Z,14.70
2019-05-01T13:57:09.937Z,14.00
2019-05-01T13:59:37.518Z,13.20
2019-05-01T14:02:04.954Z,14.50
2019-05-01T14:04:32.326Z,13.90
2019-05-01T14:06:59.825Z,14.00
2019-05-01T14:09:30.490Z,14.20
2019-05-01T14:11:57.962Z,14.00
2019-05-01T14:14:26.561Z,13.70
2019-05-01T14:16:54.045Z,14.90
2019-05-01T14:19:21.544Z,15.10
2019-05-01T14:22:08.496Z,15.80
2019-05-01T14:24:39.273Z,16.90
2019-05-01T14:27:07.878Z,17.90
2019-05-01T14:29:35.995Z,17.20
2019-05-01T14:32:03.924Z,18.70
2019-05-01T14:34:31.482Z,18.00
2019-05-01T14:36:58.864Z,17.80
2019-05-01T14:39:26.259Z,18.60
2019-05-01T14:41:53.929Z,18.90
2019-05-01T14:44:21.493Z,20.60
2019-05-01T14:46:48.964Z,19.90
2019-05-01T14:49:16.697Z,21.20
2019-05-01T14:51:44.182Z,19.80
2019-05-01T14:54:12.113Z,19.70
2019-05-01T14:56:39.981Z,19.00
2019-05-01T14:59:07.385Z,19.90
2019-05-01T15:01:35.846Z,17.60
2019-05-01T15:04:23.753Z,18.00
2019-05-01T15:06:51.808Z,17.60
2019-05-01T15:09:19.520Z,17.50
2019-05-01T15:11:47.030Z,18.90
2019-05-01T15:14:34.313Z,19.50
2019-05-01T15:17:21.256Z,18.30
2019-05-01T15:19:54.409Z,18.50
2019-05-01T15:22:21.920Z,17.90
2019-05-01T15:24:49.515Z,19.00
2019-05-01T15:27:16.955Z,20.10
2019-05-01T15:29:44.405Z,22.40
2019-05-01T15:32:12.056Z,23.70
2019-05-01T15:34:39.623Z,25.70
2019-05-01T15:37:07.213Z,26.30
2019-05-01T15:39:54.108Z,27.10
2019-05-01T15:42:44.080Z,29.80
2019-05-01T15:45:12.503Z,30.10
2019-05-01T15:47:40.034Z,29.20
2019-05-01T15:50:08.906Z,29.30
2019-05-01T15:52:36.366Z,29.40
2019-05-01T15:55:05.213Z,29.80
2019-05-01T15:57:33.058Z,30.70
2019-05-01T16:00:00.486Z,32.00
2019-05-01T16:02:27.967Z,31.90
2019-05-01T16:04:56.268Z,31.50
2019-05-01T16:07:23.784Z,32.20
2019-05-01T16:09:51.388Z,33.50
2019-05-01T16:12:33.480Z,33.00
2019-05-01T16:15:00.990Z,32.60
2019-05-01T16:17:28.580Z,31.50
2019-05-01T16:19:56.297Z,32.60
2019-05-01T16:22:23.803Z,32.60
2019-05-01T16:24:51.319Z,31.80
2019-05-01T16:27:18.771Z,31.70
2019-05-01T16:29:46.283Z,32.80
2019-05-01T16:32:13.817Z,31.00
2019-05-01T16:34:41.338Z,33.50
2019-05-01T16:37:08.816Z,31.30
2019-05-01T16:39:58.613Z,28.50
2019-05-01T16:42:37.644Z,26.60
2019-05-01T16:45:05.880Z,26.60
2019-05-01T16:47:33.352Z,27.10
2019-05-01T16:50:00.910Z,26.20
2019-05-01T16:52:31.343Z,28.30
2019-05-01T16:54:59.684Z,27.20
2019-05-01T16:57:27.214Z,27.90
2019-05-01T16:59:54.770Z,29.60
2019-05-01T17:02:38.329Z,32.10
2019-05-01T17:05:37.108Z,32.20
2019-05-01T17:08:35.322Z,33.40
2019-05-01T17:10:51.859Z,33.20
2019-05-01T17:13:20.266Z,33.80
2019-05-01T17:15:50.047Z,33.90
2019-05-01T17:18:19.170Z,34.80
2019-05-01T17:20:46.787Z,35.90
2019-05-01T17:23:14.588Z,36.80
2019-05-01T17:25:42.434Z,36.30
2019-05-01T17:28:09.926Z,36.10
2019-05-01T17:30:42.939Z,33.30
2019-05-01T17:33:10.448Z,33.70
2019-05-01T17:35:41.840Z,33.90
2019-05-01T17:38:07.601Z,36.60
2019-05-01T17:40:35.110Z,35.60
2019-05-01T17:43:08.008Z,37.40
2019-05-01T17:45:34.986Z,38.40
2019-05-01T17:48:03.778Z,38.10
2019-05-01T17:50:32.165Z,38.00
2019-05-01T17:52:59.741Z,37.20
2019-05-01T17:55:27.557Z,40.00
2019-05-01T17:57:55.169Z,40.10
2019-05-01T18:00:48.521Z,40.10
2019-05-01T18:03:44.439Z,40.10
2019-05-01T18:06:21.243Z,41.40
2019-05-01T18:08:48.860Z,42.40
2019-05-01T18:11:16.484Z,42.80
2019-05-01T18:13:44.120Z,42.10
2019-05-01T18:16:11.815Z,42.20
2019-05-01T18:18:39.831Z,42.80
2019-05-01T18:21:09.427Z,43.00
2019-05-01T18:24:05.961Z,43.80
2019-05-01T18:26:43.466Z,44.20
2019-05-01T18:29:16.608Z,44.90
2019-05-01T18:31:47.360Z,45.80
2019-05-01T18:34:15.051Z,46.10
2019-05-01T18:36:49.076Z,46.90
2019-05-01T18:39:28.027Z,47.40
2019-05-01T18:41:59.207Z,47.80
2019-05-01T18:44:27.526Z,47.90
2019-05-01T18:46:55.922Z,48.10
2019-05-01T18:49:23.952Z,48.50
2019-05-01T18:51:51.805Z,48.70
2019-05-01T18:54:19.956Z,48.90
2019-05-01T18:56:47.966Z,49.40
2019-05-01T18:59:15.923Z,49.60
2019-05-01T19:01:48.487Z,49.70
2019-05-01T19:04:18.412Z,49.60
2019-05-01T19:06:45.069Z,50.20
2019-05-01T19:09:14.975Z,51.50
2019-05-01T19:11:43.114Z,52.00
2019-05-01T19:14:11.152Z,52.20
2019-05-01T19:16:40.063Z,52.60
2019-05-01T19:19:09.366Z,53.00
2019-05-01T19:21:41.706Z,52.80
2019-05-01T19:24:07.259Z,52.80
2019-05-01T19:26:38.314Z,53.20
2019-05-01T19:29:04.743Z,54.10
2019-05-01T19:31:33.115Z,54.20
2019-05-01T19:34:01.224Z,54.30
2019-05-01T19:36:29.040Z,55.20
2019-05-01T19:38:56.864Z,56.00
2019-05-01T19:41:25.285Z,56.30
2019-05-01T19:43:53.206Z,56.30
2019-05-01T19:46:20.865Z,56.00
2019-05-01T19:48:50.894Z,55.80
2019-05-01T19:51:19.218Z,56.20
2019-05-01T19:53:51.866Z,55.90
2019-05-01T19:56:21.566Z,56.00
2019-05-01T19:58:46.503Z,56.20
2019-05-01T20:01:14.783Z,56.30
2019-05-01T20:03:42.441Z,56.20
2019-05-01T20:06:10.534Z,56.60
2019-05-01T20:08:38.366Z,56.90
2019-05-01T20:11:09.170Z,57.70
2019-05-01T20:13:36.088Z,57.80
2019-05-01T20:16:06.358Z,58.40
2019-05-01T20:18:33.899Z,58.50
2019-05-01T20:21:01.615Z,58.30
2019-05-01T20:23:31.369Z,58.40
2019-05-01T20:25:58.767Z,58.40
2019-05-01T20:28:28.326Z,58.40
2019-05-01T20:30:55.858Z,59.00
2019-05-01T20:33:23.858Z,59.90
2019-05-01T20:35:51.398Z,60.20
2019-05-01T20:38:19.202Z,60.10
2019-05-01T20:40:46.766Z,60.10
2019-05-01T20:43:14.713Z,60.50
2019-05-01T20:45:44.970Z,60.30
2019-05-01T20:48:12.142Z,60.70
2019-05-01T20:50:40.143Z,61.10
2019-05-01T20:53:07.942Z,61.10
2019-05-01T20:55:35.950Z,61.30
2019-05-01T20:58:16.747Z,61.60
2019-05-01T21:00:48.193Z,61.70
2019-05-01T21:03:14.205Z,61.80
2019-05-01T21:05:51.292Z,61.70
2019-05-01T21:08:36.997Z,61.90
2019-05-01T21:11:10.957Z,61.90
2019-05-01T21:13:37.205Z,61.80
2019-05-01T21:16:04.830Z,61.80
2019-05-01T21:18:32.410Z,61.90
2019-05-01T21:20:59.927Z,61.70
2019-05-01T21:23:27.487Z,62.30
2019-05-01T21:25:55.066Z,63.00
2019-05-01T21:28:23.986Z,62.40
2019-05-01T21:30:51.739Z,62.20
2019-05-01T21:33:19.706Z,63.30
2019-05-01T21:35:47.189Z,63.80
2019-05-01T21:38:14.806Z,63.40
2019-05-01T21:40:43.818Z,63.60
2019-05-01T21:43:13.628Z,63.80
2019-05-01T21:45:43.216Z,63.50
2019-05-01T21:48:13.232Z,64.20
2019-05-01T21:50:40.597Z,64.40
2019-05-01T21:53:08.911Z,64.00
2019-05-01T21:55:36.476Z,63.90
2019-05-01T21:58:05.154Z,63.80
2019-05-01T22:00:37.927Z,64.10
2019-05-01T22:03:06.300Z,64.60
2019-05-01T22:05:34.761Z,64.60
2019-05-01T22:08:03.910Z,64.10
2019-05-01T22:10:32.648Z,64.00
2019-05-01T22:13:00.210Z,64.20
2019-05-01T22:15:33.679Z,64.30
2019-05-01T22:18:12.880Z,64.30
2019-05-01T22:20:47.734Z,64.40
2019-05-01T22:23:17.062Z,65.10
2019-05-01T22:25:51.074Z,64.60
2019-05-01T22:28:43.901Z,64.30
2019-05-01T22:31:36.629Z,64.70
2019-05-01T22:34:13.532Z,65.30
2019-05-01T22:36:41.146Z,65.20
2019-05-01T22:39:08.700Z,65.60
2019-05-01T22:41:36.433Z,65.90
2019-05-01T22:44:04.098Z,66.00
2019-05-01T22:46:33.847Z,65.80
2019-05-01T22:49:01.123Z,66.10
2019-05-01T22:51:28.553Z,66.00
2019-05-01T22:53:56.397Z,66.30
2019-05-01T22:56:24.284Z,65.90
2019-05-01T22:58:51.754Z,65.70
2019-05-01T23:01:19.321Z,65.90
2019-05-01T23:03:54.645Z,66.00
2019-05-01T23:06:22.176Z,66.30
2019-05-01T23:08:49.941Z,66.10
2019-05-01T23:11:20.052Z,65.80
2019-05-01T23:13:46.931Z,66.50
2019-05-01T23:16:15.763Z,66.60
2019-05-01T23:18:47.135Z,66.60
2019-05-01T23:21:14.635Z,66.30
2019-05-01T23:23:41.758Z,66.10
2019-05-01T23:26:11.590Z,66.10
2019-05-01T23:28:39.854Z,66.20
2019-05-01T23:31:07.711Z,66.70
2019-05-01T23:33:35.056Z,67.30
2019-05-01T23:36:03.050Z,67.00
2019-05-01T23:38:30.503Z,67.50
2019-05-01T23:40:57.991Z,67.40
2019-05-01T23:43:27.785Z,67.60
2019-05-01T23:45:54.689Z,67.20
2019-05-01T23:48:22.507Z,67.20
2019-05-01T23:50:49.996Z,66.90
2019-05-01T23:53:17.313Z,67.60
2019-05-01T23:55:44.655Z,67.40
2019-05-01T23:58:12.252Z,67.40
